Time;durP1;ratioP1;P1;durP2;ratioP2;P2;SDS_P1;SDS_P2;PMS_P1;PMS_P2;Temp;Humidity;BMP_temperature;BMP_pressure;BME280_temperature;BME280_humidity;BME280_pressure;Samples;Min_cycle;Max_cycle;Signal;HPM_P1;HPM_P2
2022/08/13 00:00:11;;;;;;;11.73;8.73;;;;;;;20.57;57.82;100590.34;8363310;28;20119;-52
2022/08/13 00:04:14;;;;;;;10.55;9.38;;;;;;;20.78;57.57;100593.00;8362257;28;20033;-54
2022/08/13 00:08:15;;;;;;;11.13;9.95;;;;;;;20.48;59.58;100587.94;8361596;28;20048;-51
2022/08/13 00:13:23;;;;;;;9.80;8.82;;;;;;;20.67;58.32;100584.44;8360703;28;20120;-52
2022/08/13 00:16:41;;;;;;;11.85;9.15;;;;;;;20.57;58.57;100586.72;8352151;28;20565;-52
2022/08/13 00:20:48;;;;;;;10.55;8.63;;;;;;;20.62;58.17;100592.47;8331925;28;20370;-53
2022/08/13 00:24:48;;;;;;;10.20;8.60;;;;;;;20.60;57.83;100594.56;8363444;28;20036;-51
2022/08/13 00:28:53;;;;;;;9.57;7.93;;;;;;;20.62;57.79;100593.31;8395126;28;20564;-52
2022/08/13 00:32:54;;;;;;;15.75;7.63;;;;;;;20.89;57.14;100605.28;8393929;28;20036;-53
2022/08/13 00:36:54;;;;;;;10.15;7.32;;;;;;;20.89;57.17;100594.31;8394455;28;20046;-53
2022/08/13 00:40:58;;;;;;;10.35;7.65;;;;;;;20.22;59.67;100593.28;8394962;28;20055;-53
2022/08/13 00:44:59;;;;;;;9.65;7.97;;;;;;;20.20;60.09;100595.38;8394627;27;20071;-51
2022/08/13 00:49:01;;;;;;;9.20;7.53;;;;;;;20.53;58.53;100589.06;8394536;28;20037;-53
2022/08/13 00:53:02;;;;;;;6.88;6.28;;;;;;;20.68;58.00;100586.16;8395127;28;20039;-53
2022/08/13 00:57:07;;;;;;;8.90;7.20;;;;;;;20.49;58.55;100581.44;8394320;28;20040;-53
2022/08/13 01:01:08;;;;;;;11.25;6.80;;;;;;;20.25;58.89;100581.91;8379154;28;20045;-53
2022/08/13 01:05:09;;;;;;;11.70;6.82;;;;;;;20.06;59.41;100588.09;8389743;28;20029;-49
2022/08/13 01:09:12;;;;;;;10.70;6.72;;;;;;;20.11;59.93;100585.56;8371402;28;20569;-50
2022/08/13 01:13:14;;;;;;;6.72;6.07;;;;;;;20.01;60.25;100587.81;8360938;28;20112;-51
2022/08/13 01:17:17;;;;;;;6.97;5.95;;;;;;;19.91;60.50;100590.91;8343680;28;20567;-50
2022/08/13 01:21:22;;;;;;;9.27;6.20;;;;;;;19.81;60.52;100587.66;8343678;28;20033;-54
2022/08/13 01:25:24;;;;;;;7.13;6.43;;;;;;;19.55;61.92;100589.31;8359832;28;20512;-51
2022/08/13 01:29:25;;;;;;;8.85;5.28;;;;;;;19.73;59.87;100595.19;8374218;28;20039;-54
2022/08/13 01:33:26;;;;;;;6.55;5.30;;;;;;;19.46;60.82;100588.63;8377096;28;20032;-50
2022/08/13 01:37:27;;;;;;;6.82;4.85;;;;;;;19.19;62.13;100590.16;8376453;28;20086;-50
2022/08/13 01:41:27;;;;;;;6.55;5.30;;;;;;;18.70;64.28;100585.59;8375429;28;20037;-52
2022/08/13 01:45:30;;;;;;;7.68;4.75;;;;;;;18.62;64.56;100586.53;8374588;28;20033;-52
2022/08/13 01:50:30;;;;;;;6.50;5.38;;;;;;;18.43;65.68;100584.38;8375722;28;20082;-49
2022/08/13 01:53:54;;;;;;;6.15;5.22;;;;;;;18.21;67.12;100590.75;8364467;28;20166;-51
2022/08/13 01:57:55;;;;;;;6.97;5.85;;;;;;;18.10;68.23;100588.50;8364870;28;20040;-52
2022/08/13 02:01:57;;;;;;;9.20;5.65;;;;;;;17.82;68.86;100595.63;8354592;28;20067;-49
2022/08/13 02:05:57;;;;;;;6.20;5.20;;;;;;;18.13;66.26;100593.59;8341751;28;20057;-50
2022/08/13 02:09:57;;;;;;;5.03;4.47;;;;;;;18.04;65.89;100594.72;8342218;28;20512;-49
2022/08/13 02:14:00;;;;;;;5.97;4.75;;;;;;;18.20;65.05;100596.44;8341947;28;20508;-51
2022/08/13 02:18:04;;;;;;;5.90;4.57;;;;;;;18.09;65.18;100595.00;8342644;28;20052;-53
2022/08/13 02:22:04;;;;;;;6.63;4.32;;;;;;;17.94;65.39;100590.53;8342635;28;20494;-51
2022/08/13 02:26:05;;;;;;;6.63;5.00;;;;;;;17.96;65.74;100581.09;8363992;28;20396;-51
2022/08/13 02:30:09;;;;;;;6.05;5.10;;;;;;;17.74;67.04;100592.09;8375023;28;20045;-52
2022/08/13 02:34:11;;;;;;;7.47;5.32;;;;;;;17.65;68.42;100598.69;8374718;28;20083;-54
2022/08/13 02:38:12;;;;;;;5.50;4.85;;;;;;;17.63;68.23;100596.97;8374920;28;20123;-53
2022/08/13 02:42:12;;;;;;;6.30;4.43;;;;;;;17.64;68.48;100603.28;8374849;28;20048;-52
2022/08/13 02:46:15;;;;;;;9.25;4.47;;;;;;;17.61;68.90;100603.66;8365598;28;20045;-51
2022/08/13 02:50:16;;;;;;;5.45;4.40;;;;;;;17.35;70.27;100597.66;8362538;28;20129;-50
2022/08/13 02:54:20;;;;;;;4.85;3.80;;;;;;;17.41;70.91;100602.41;8348038;28;20404;-49
2022/08/13 02:58:20;;;;;;;4.35;3.53;;;;;;;17.37;71.06;100601.09;8374775;28;20028;-49
2022/08/13 03:02:21;;;;;;;7.45;4.28;;;;;;;17.37;70.94;100595.63;8372878;28;20037;-50
2022/08/13 03:06:22;;;;;;;6.25;4.00;;;;;;;17.30;70.07;100594.66;8374168;28;20397;-51
2022/08/13 03:10:27;;;;;;;8.52;4.07;;;;;;;17.12;69.42;100599.56;8375112;28;20067;-52
2022/08/13 03:14:29;;;;;;;;;;;;;;;17.01;69.64;100608.16;8374908;28;20032;-51
2022/08/13 03:18:31;;;;;;;6.43;3.83;;;;;;;16.97;69.71;100593.16;8398782;28;19994;-52
2022/08/13 03:22:31;;;;;;;5.50;4.32;;;;;;;17.03;69.83;100606.09;8374392;28;20045;-52
2022/08/13 03:26:33;;;;;;;6.10;3.60;;;;;;;17.19;69.28;100608.72;8374213;28;20043;-49
2022/08/13 03:30:34;;;;;;;5.32;3.65;;;;;;;17.31;68.76;100604.53;8374276;28;20053;-50
2022/08/13 03:34:36;;;;;;;3.90;3.42;;;;;;;17.35;68.42;100603.13;8373300;28;20036;-50
2022/08/13 03:38:37;;;;;;;8.80;3.38;;;;;;;17.51;67.86;100603.06;8351963;28;20487;-52
2022/08/13 03:42:40;;;;;;;4.90;2.92;;;;;;;17.54;67.82;100602.72;8371832;28;20029;-52
2022/08/13 03:46:41;;;;;;;8.85;2.90;;;;;;;17.58;67.84;100599.41;8345323;28;20406;-53
2022/08/13 03:50:45;;;;;;;7.22;3.20;;;;;;;17.57;67.95;100596.88;8341882;28;20082;-53
2022/08/13 03:54:46;;;;;;;4.22;3.00;;;;;;;17.56;68.08;100595.16;8358537;28;20035;-52
2022/08/13 03:58:46;;;;;;;3.67;3.30;;;;;;;17.49;68.82;100600.53;8379924;28;20029;-50
2022/08/13 04:02:47;;;;;;;6.70;2.97;;;;;;;17.32;69.27;100606.22;8379793;28;20044;-49
2022/08/13 04:06:47;;;;;;;6.83;3.37;;;;;;;17.20;69.70;100605.81;8379667;28;20036;-52
2022/08/13 04:10:48;;;;;;;8.50;3.63;;;;;;;16.85;70.59;100608.25;8379781;28;20283;-50
2022/08/13 04:14:48;;;;;;;4.28;3.20;;;;;;;16.80;70.51;100613.41;8379821;28;20286;-52
2022/08/13 04:18:50;;;;;;;4.10;2.77;;;;;;;17.00;69.44;100609.19;8379880;28;20037;-53
2022/08/13 04:22:52;;;;;;;3.35;2.42;;;;;;;16.96;69.36;100618.78;8378214;28;20268;-50
2022/08/13 04:26:52;;;;;;;3.95;2.20;;;;;;;16.92;69.66;100620.16;8364266;28;20040;-49
2022/08/13 04:30:52;;;;;;;3.92;2.47;;;;;;;16.94;69.95;100615.38;8363446;28;20064;-52
2022/08/13 04:34:54;;;;;;;4.28;2.33;;;;;;;16.97;69.76;100620.47;8360350;28;20405;-50
2022/08/13 04:38:55;;;;;;;5.38;2.40;;;;;;;17.00;70.21;100614.66;8391798;28;20040;-53
2022/08/13 04:42:55;;;;;;;4.97;1.95;;;;;;;17.02;70.92;100618.06;8392036;28;20063;-53
2022/08/13 04:46:55;;;;;;;3.17;2.25;;;;;;;16.85;72.46;100621.91;8377258;28;20508;-49
2022/08/13 04:50:56;;;;;;;3.85;3.13;;;;;;;17.08;70.74;100620.06;8375091;28;20612;-50
2022/08/13 04:54:56;;;;;;;4.38;3.10;;;;;;;17.04;72.13;100616.84;8351028;28;20040;-51
2022/08/13 04:58:57;;;;;;;4.82;2.58;;;;;;;16.74;74.00;100620.41;8359802;28;20040;-51
2022/08/13 05:03:08;;;;;;;5.25;2.60;;;;;;;17.20;71.84;100626.84;8374197;27;20041;-50
2022/08/13 05:07:08;;;;;;;5.72;2.42;;;;;;;17.48;70.48;100625.31;8361069;28;20045;-51
2022/08/13 05:11:12;;;;;;;6.67;2.73;;;;;;;17.73;70.11;100626.81;8340881;28;20148;-49
2022/08/13 05:15:13;;;;;;;4.00;2.17;;;;;;;17.97;68.67;100629.31;8343715;28;20268;-51
2022/08/13 05:19:14;;;;;;;3.35;2.13;;;;;;;18.01;69.05;100632.53;8355433;28;20493;-50
2022/08/13 05:23:14;;;;;;;5.07;2.60;;;;;;;18.31;69.47;100634.28;8345762;28;20398;-50
2022/08/13 05:27:15;;;;;;;4.25;2.38;;;;;;;18.50;68.84;100637.34;8394935;28;20260;-49
2022/08/13 05:31:18;;;;;;;6.35;2.10;;;;;;;18.82;66.93;100634.19;8373557;28;20455;-51
2022/08/13 05:35:18;;;;;;;3.75;2.00;;;;;;;19.24;66.84;100645.28;8371533;28;20033;-53
2022/08/13 05:39:19;;;;;;;5.15;2.58;;;;;;;19.38;67.28;100638.94;8373441;28;20033;-49
2022/08/13 05:43:21;;;;;;;6.88;2.25;;;;;;;19.75;65.22;100645.22;8372781;28;20033;-50
2022/08/13 05:47:22;;;;;;;5.63;2.15;;;;;;;19.88;64.93;100648.94;8367054;28;20085;-51
2022/08/13 05:51:25;;;;;;;5.32;1.92;;;;;;;20.32;63.85;100651.44;8373262;28;20561;-49
2022/08/13 05:55:25;;;;;;;3.47;1.55;;;;;;;20.72;61.91;100647.91;8372213;28;20044;-50
2022/08/13 06:03:46;;;;;;;4.88;1.70;;;;;;;21.20;59.94;100646.91;8371068;28;20044;-51
2022/08/13 06:07:46;;;;;;;8.13;1.60;;;;;;;21.40;60.13;100653.31;8354865;28;20061;-52
2022/08/13 06:11:49;;;;;;;6.20;1.70;;;;;;;21.72;59.71;100641.53;8361919;28;20036;-49
2022/08/13 06:15:58;;;;;;;5.80;1.48;;;;;;;22.04;58.67;100650.91;8344771;28;20686;-53
2022/08/13 06:20:00;;;;;;;2.00;1.63;;;;;;;22.22;58.44;100643.69;8339025;28;20028;-52
2022/08/13 06:24:01;;;;;;;9.88;1.95;;;;;;;22.49;58.43;100650.88;8344194;28;20032;-52
2022/08/13 06:28:03;;;;;;;8.90;1.92;;;;;;;22.82;57.88;100651.69;8363265;28;20033;-51
2022/08/13 06:32:04;;;;;;;3.28;1.60;;;;;;;22.98;57.13;100645.69;8372188;28;20028;-51
2022/08/13 06:36:07;;;;;;;2.80;1.70;;;;;;;23.15;57.58;100646.88;8359733;28;20032;-51
2022/08/13 06:40:10;;;;;;;1.75;1.52;;;;;;;23.21;57.09;100647.94;8344581;28;20116;-52
2022/08/13 06:44:11;;;;;;;4.38;1.70;;;;;;;23.63;56.94;100649.25;8362958;28;20409;-50
2022/08/13 06:48:14;;;;;;;4.65;1.60;;;;;;;23.66;56.48;100643.28;8348496;28;20050;-50
2022/08/13 06:52:14;;;;;;;8.13;1.75;;;;;;;23.98;56.14;100647.75;8371594;28;20131;-52
2022/08/13 06:56:20;;;;;;;5.87;1.53;;;;;;;24.42;55.72;100650.31;8368845;28;20116;-51
2022/08/13 07:00:23;;;;;;;6.93;1.70;;;;;;;24.86;54.29;100663.94;8338961;28;20350;-50
2022/08/13 07:04:24;;;;;;;6.70;1.90;;;;;;;24.56;53.83;100654.66;8337620;28;20566;-54
2022/08/13 07:08:27;;;;;;;4.00;1.65;;;;;;;25.01;53.29;100651.41;8343532;28;20522;-54
2022/08/13 07:12:31;;;;;;;5.15;1.48;;;;;;;25.07;53.11;100654.34;8344023;28;20040;-51
2022/08/13 07:16:33;;;;;;;8.77;1.93;;;;;;;25.45;53.09;100647.47;8338034;28;20115;-51
2022/08/13 07:20:36;;;;;;;4.75;1.67;;;;;;;25.99;51.60;100654.81;8347052;28;20033;-52
2022/08/13 07:24:37;;;;;;;3.55;1.50;;;;;;;26.17;51.48;100652.78;8348944;28;20060;-51
2022/08/13 07:28:39;;;;;;;5.70;1.30;;;;;;;26.09;51.70;100650.38;8365349;28;20049;-51
2022/08/13 07:32:39;;;;;;;4.20;1.42;;;;;;;26.32;51.12;100655.94;8357337;28;20393;-51
2022/08/13 07:36:40;;;;;;;3.75;1.20;;;;;;;26.43;51.04;100649.56;8346199;28;20045;-50
2022/08/13 07:40:45;;;;;;;3.03;1.63;;;;;;;26.75;50.71;100656.44;8343268;28;20063;-51
2022/08/13 07:44:48;;;;;;;3.22;1.00;;;;;;;27.26;49.33;100652.06;8359217;28;20064;-53
2022/08/13 07:48:51;;;;;;;5.50;1.25;;;;;;;27.34;47.97;100652.53;8364066;28;20036;-52
2022/08/13 07:52:55;;;;;;;3.63;1.23;;;;;;;27.48;47.44;100648.38;8379057;28;20040;-51
2022/08/13 07:56:56;;;;;;;2.20;1.10;;;;;;;27.78;47.01;100650.91;8373367;28;20033;-49
2022/08/13 08:00:59;;;;;;;2.65;1.00;;;;;;;27.67;46.81;100654.56;8359392;28;20032;-51
2022/08/13 08:05:03;;;;;;;1.02;0.90;;;;;;;28.00;45.88;100665.78;8372661;28;20037;-51
2022/08/13 08:09:03;;;;;;;6.13;0.80;;;;;;;27.86;46.06;100653.28;8360298;28;20457;-52
2022/08/13 08:13:04;;;;;;;1.83;0.80;;;;;;;28.17;45.56;100661.06;8366074;28;20048;-49
2022/08/13 08:17:08;;;;;;;1.85;1.10;;;;;;;28.18;45.22;100668.34;8367415;28;20040;-49
2022/08/13 08:21:08;;;;;;;2.95;0.90;;;;;;;28.50;45.94;100672.25;8357023;28;20037;-49
2022/08/13 08:25:15;;;;;;;2.60;1.00;;;;;;;28.45;45.25;100663.81;8358489;28;20488;-50
2022/08/13 08:29:16;;;;;;;3.78;0.80;;;;;;;28.51;44.73;100655.28;8365400;28;20052;-52
2022/08/13 08:33:25;;;;;;;4.38;0.82;;;;;;;28.75;44.11;100666.25;8371416;28;20040;-50
2022/08/13 08:42:48;;;;;;;5.30;1.48;;;;;;;28.45;44.97;100661.00;8373513;28;20043;-50
2022/08/13 08:46:07;;;;;;;2.13;0.80;;;;;;;28.63;44.96;100656.03;8366590;28;20040;-50
2022/08/13 08:50:09;;;;;;;2.38;0.75;;;;;;;28.63;44.55;100659.94;8370206;28;20045;-52
2022/08/13 08:54:11;;;;;;;2.10;0.90;;;;;;;28.77;44.52;100656.53;8358043;28;20044;-53
2022/08/13 08:58:12;;;;;;;3.30;0.98;;;;;;;28.81;44.20;100654.09;8395133;28;20040;-52
2022/08/13 09:02:24;;;;;;;2.88;0.90;;;;;;;28.87;44.28;100647.50;8359277;28;20329;-52
2022/08/13 09:06:27;;;;;;;1.83;0.63;;;;;;;29.18;43.48;100639.31;8383995;28;20047;-51
2022/08/13 09:10:33;;;;;;;1.40;1.20;;;;;;;29.42;44.15;100643.50;8384906;28;20436;-51
2022/08/13 09:14:33;;;;;;;3.88;1.08;;;;;;;29.71;43.50;100633.00;8385658;28;20036;-51
2022/08/13 09:18:34;;;;;;;0.90;0.80;;;;;;;29.60;42.53;100632.00;8385622;28;20070;-52
2022/08/13 09:22:35;;;;;;;1.45;0.80;;;;;;;29.50;42.97;100626.34;8383214;28;20045;-54
2022/08/13 09:26:38;;;;;;;0.98;0.70;;;;;;;29.58;42.54;100634.22;8384840;28;20192;-52
2022/08/13 09:30:41;;;;;;;3.22;0.93;;;;;;;29.42;42.69;100631.50;8383126;28;20053;-53
2022/08/13 09:34:44;;;;;;;0.98;0.73;;;;;;;29.77;42.15;100627.22;8375263;28;20044;-54
2022/08/13 09:38:44;;;;;;;3.33;0.80;;;;;;;30.22;42.00;100629.63;8378856;28;20081;-54
2022/08/13 09:42:57;;;;;;;2.58;1.00;;;;;;;30.38;42.45;100629.44;8384643;28;20033;-54
2022/08/13 09:46:57;;;;;;;4.13;0.90;;;;;;;30.54;41.28;100624.84;8382027;28;20033;-55
2022/08/13 09:50:57;;;;;;;1.77;0.80;;;;;;;31.33;40.71;100618.06;8377361;28;20038;-53
2022/08/13 09:54:58;;;;;;;6.63;0.80;;;;;;;32.74;39.10;100619.06;8371595;28;20041;-54
2022/08/13 09:58:59;;;;;;;2.38;0.95;;;;;;;32.74;38.12;100607.84;8381095;28;20174;-54
2022/08/13 10:03:04;;;;;;;1.95;0.77;;;;;;;34.79;36.50;100607.72;8381004;28;20404;-54
2022/08/13 10:07:07;;;;;;;3.78;0.88;;;;;;;36.20;35.05;100601.03;8372853;28;20037;-52
2022/08/13 10:11:08;;;;;;;;;;;;;;;35.52;35.58;100607.13;8373575;28;20041;-54
2022/08/13 10:15:10;;;;;;;2.55;1.10;;;;;;;35.43;35.37;100606.13;8380795;28;19916;-51
2022/08/13 10:19:11;;;;;;;3.97;1.00;;;;;;;35.46;35.18;100596.25;8380159;28;20048;-54
2022/08/13 10:23:15;;;;;;;2.17;0.93;;;;;;;35.63;35.67;100586.16;8378576;28;20102;-53
2022/08/13 10:27:16;;;;;;;2.95;0.90;;;;;;;36.22;34.26;100588.31;8375270;28;20035;-55
2022/08/13 10:31:17;;;;;;;2.60;1.07;;;;;;;35.37;35.15;100592.44;8380614;28;20036;-55
2022/08/13 10:35:19;;;;;;;2.83;1.17;;;;;;;35.88;34.61;100587.75;8379101;28;20476;-54
2022/08/13 10:39:19;;;;;;;2.83;1.05;;;;;;;36.33;34.66;100587.03;8379633;28;20033;-55
2022/08/13 10:43:21;;;;;;;2.03;0.83;;;;;;;36.03;34.29;100576.25;8376367;28;20523;-55
2022/08/13 10:47:24;;;;;;;1.15;0.98;;;;;;;36.22;34.05;100560.13;8375456;28;20299;-55
2022/08/13 10:51:27;;;;;;;1.15;0.90;;;;;;;35.93;34.41;100579.22;8370774;28;20162;-55
2022/08/13 10:55:27;;;;;;;3.30;1.10;;;;;;;36.45;34.06;100567.66;8370198;28;20064;-53
2022/08/13 10:59:28;;;;;;;1.05;0.93;;;;;;;37.50;32.44;100563.81;8375187;28;20283;-55
2022/08/13 11:03:31;;;;;;;2.55;0.82;;;;;;;36.98;32.97;100568.00;8373715;28;20048;-55
2022/08/13 11:07:34;;;;;;;3.13;0.90;;;;;;;36.91;33.67;100561.97;8365773;28;20063;-54
2022/08/13 11:11:35;;;;;;;4.68;0.95;;;;;;;36.99;32.74;100552.78;8345116;28;20039;-54
2022/08/13 11:15:35;;;;;;;5.93;1.20;;;;;;;36.61;33.03;100546.47;8367543;28;20040;-55
2022/08/13 11:19:40;;;;;;;2.90;1.10;;;;;;;35.72;33.63;100544.06;8365232;28;20067;-52
2022/08/13 11:23:40;;;;;;;2.08;0.88;;;;;;;36.60;33.29;100527.91;8384318;28;20041;-54
2022/08/13 11:27:41;;;;;;;1.53;1.20;;;;;;;36.50;33.02;100539.34;8373133;28;20120;-55
2022/08/13 11:31:42;;;;;;;2.22;0.88;;;;;;;37.12;32.82;100546.28;8374642;28;20561;-54
2022/08/13 11:35:44;;;;;;;1.00;0.90;;;;;;;38.21;31.87;100529.91;8375810;28;20408;-54
2022/08/13 11:39:44;;;;;;;1.50;0.82;;;;;;;37.02;32.87;100523.97;8372109;28;20032;-55
2022/08/13 11:43:44;;;;;;;2.70;0.90;;;;;;;37.15;31.41;100518.31;8379373;28;20124;-54
2022/08/13 11:47:45;;;;;;;3.17;1.20;;;;;;;37.01;32.44;100522.25;8366958;28;20343;-55
2022/08/13 11:51:46;;;;;;;4.33;1.00;;;;;;;37.32;31.66;100518.50;8380389;28;20366;-52
2022/08/13 11:55:47;;;;;;;1.00;0.77;;;;;;;36.79;32.00;100520.22;8370647;28;20036;-52
2022/08/13 11:59:48;;;;;;;3.17;1.00;;;;;;;36.64;32.99;100520.47;8374869;28;20064;-52
2022/08/13 12:03:48;;;;;;;5.88;1.10;;;;;;;35.83;33.91;100519.44;8367499;28;20279;-54
2022/08/13 12:07:49;;;;;;;3.92;0.80;;;;;;;34.15;35.85;100503.31;8373528;28;20051;-54
2022/08/13 12:11:49;;;;;;;1.53;0.93;;;;;;;33.22;36.22;100508.19;8374336;28;20440;-54
2022/08/13 12:15:49;;;;;;;1.58;1.15;;;;;;;33.15;35.72;100497.28;8379417;28;20341;-54
2022/08/13 12:19:50;;;;;;;1.77;1.00;;;;;;;33.06;36.67;100499.06;8381019;28;20120;-52
2022/08/13 12:23:50;;;;;;;3.90;1.00;;;;;;;32.68;37.33;100491.34;8372424;28;20404;-54
2022/08/13 12:28:10;;;;;;;2.57;1.10;;;;;;;31.93;37.46;100480.31;8377540;28;20638;-54
2022/08/13 12:32:10;;;;;;;1.98;0.95;;;;;;;31.95;37.13;100483.66;8388661;28;20147;-55
2022/08/13 12:36:12;;;;;;;3.23;1.10;;;;;;;32.01;37.48;100482.53;8369587;28;20481;-54
2022/08/13 12:40:12;;;;;;;1.25;1.02;;;;;;;32.48;37.31;100457.84;8361706;28;20315;-53
2022/08/13 12:44:13;;;;;;;1.20;1.10;;;;;;;32.92;37.39;100452.31;8361868;28;20056;-55
2022/08/13 12:48:16;;;;;;;1.30;1.02;;;;;;;32.27;37.18;100447.78;8365420;28;20332;-55
2022/08/13 12:52:16;;;;;;;0.83;0.83;;;;;;;31.97;36.91;100456.25;8366248;28;20033;-55
2022/08/13 12:56:16;;;;;;;1.77;1.00;;;;;;;32.42;37.00;100442.19;8365138;28;20049;-53
2022/08/13 13:00:17;;;;;;;5.60;1.30;;;;;;;32.31;37.13;100446.09;8381132;28;20536;-54
2022/08/13 13:04:22;;;;;;;1.42;1.00;;;;;;;32.19;37.09;100438.03;8361581;28;20358;-53
2022/08/13 13:08:26;;;;;;;3.00;1.10;;;;;;;32.31;37.29;100443.28;8358061;28;20033;-55
2022/08/13 13:12:27;;;;;;;4.35;1.02;;;;;;;32.69;37.34;100427.78;8381485;28;20040;-51
2022/08/13 13:16:28;;;;;;;5.60;1.33;;;;;;;32.10;37.61;100422.09;8372930;28;20098;-53
2022/08/13 13:20:28;;;;;;;2.85;1.20;;;;;;;32.11;38.57;100420.97;8365115;28;20149;-52
2022/08/13 13:24:28;;;;;;;2.17;1.20;;;;;;;32.20;37.52;100410.88;8359476;28;20124;-53
2022/08/13 13:28:31;;;;;;;1.70;0.85;;;;;;;32.34;36.05;100406.38;8370645;28;20808;-54
2022/08/13 13:32:31;;;;;;;1.50;0.93;;;;;;;32.30;36.08;100405.25;8362624;28;20049;-54
2022/08/13 13:36:32;;;;;;;2.93;1.00;;;;;;;31.99;36.28;100403.66;8375891;28;20119;-55
2022/08/13 13:40:37;;;;;;;2.70;1.10;;;;;;;32.19;36.19;100400.78;8360290;28;20699;-53
2022/08/13 13:44:38;;;;;;;1.92;1.05;;;;;;;32.61;36.93;100392.81;8361245;28;20048;-51
2022/08/13 13:48:41;;;;;;;5.10;1.10;;;;;;;32.40;35.95;100399.63;8368524;28;20123;-53
2022/08/13 13:52:41;;;;;;;2.05;1.30;;;;;;;32.17;36.56;100412.25;8360813;28;20368;-52
2022/08/13 13:56:41;;;;;;;1.20;0.90;;;;;;;32.13;37.15;100401.94;8372481;28;20036;-53
2022/08/13 14:00:42;;;;;;;1.33;1.10;;;;;;;32.32;36.60;100386.19;8369318;28;20319;-52
2022/08/13 14:04:44;;;;;;;2.42;1.13;;;;;;;32.26;37.01;100386.50;8362584;28;20031;-53
2022/08/13 14:08:48;;;;;;;3.20;1.15;;;;;;;32.52;36.18;100374.94;8364516;28;20048;-54
2022/08/13 14:12:49;;;;;;;;;;;;;;;32.56;36.18;100376.03;8364354;28;20044;-55
2022/08/13 14:16:52;;;;;;;1.45;1.10;;;;;;;32.42;37.04;100375.00;8369996;28;20062;-51
2022/08/13 14:20:54;;;;;;;2.65;1.20;;;;;;;32.32;36.17;100366.59;8339636;28;20505;-53
2022/08/13 14:24:56;;;;;;;4.10;1.42;;;;;;;32.10;36.23;100366.13;8348862;28;20033;-50
2022/08/13 14:28:57;;;;;;;4.10;1.30;;;;;;;31.91;36.12;100356.66;8366487;28;21056;-54
2022/08/13 14:32:58;;;;;;;2.55;1.13;;;;;;;32.42;36.91;100349.78;8355016;28;20401;-54
2022/08/13 14:37:00;;;;;;;2.53;1.10;;;;;;;32.65;36.50;100339.88;8349923;28;20033;-53
2022/08/13 14:41:01;;;;;;;4.20;1.40;;;;;;;32.30;36.92;100335.25;8359405;28;20033;-55
2022/08/13 14:46:02;;;;;;;1.35;0.90;;;;;;;32.67;36.88;100330.03;8346122;28;20045;-53
2022/08/13 14:49:22;;;;;;;2.15;1.00;;;;;;;32.46;36.01;100336.03;8353753;28;20116;-54
2022/08/13 14:53:24;;;;;;;4.45;1.27;;;;;;;32.43;36.49;100331.84;8353835;28;20492;-51
2022/08/13 14:57:25;;;;;;;1.15;1.00;;;;;;;32.21;36.30;100328.59;8344535;28;20033;-55
2022/08/13 15:01:27;;;;;;;4.40;1.10;;;;;;;32.25;36.55;100324.06;8361363;28;20061;-52
2022/08/13 15:05:28;;;;;;;1.77;1.00;;;;;;;32.25;36.35;100324.06;8358915;28;20512;-55
2022/08/13 15:09:29;;;;;;;4.85;1.08;;;;;;;32.16;37.29;100309.84;8350809;28;20132;-55
2022/08/13 15:13:30;;;;;;;1.13;1.02;;;;;;;32.36;36.25;100308.94;8361475;28;20033;-55
2022/08/13 15:17:32;;;;;;;2.15;1.20;;;;;;;32.23;36.73;100301.13;8376030;28;20032;-55
2022/08/13 15:21:32;;;;;;;3.15;1.30;;;;;;;32.32;36.24;100302.19;8356029;28;20075;-55
2022/08/13 15:25:33;;;;;;;7.47;1.50;;;;;;;32.26;36.49;100303.34;8358069;28;20164;-56
2022/08/13 15:29:33;;;;;;;1.13;1.00;;;;;;;32.27;35.92;100302.25;8352737;28;20761;-51
2022/08/13 15:33:34;;;;;;;3.28;1.23;;;;;;;32.16;36.14;100297.81;8349956;28;20041;-52
2022/08/13 15:37:35;;;;;;;1.88;1.00;;;;;;;32.12;36.67;100286.38;8362006;28;20046;-55
2022/08/13 15:41:35;;;;;;;3.40;0.90;;;;;;;32.14;36.16;100280.50;8343290;28;20052;-55
2022/08/13 15:45:39;;;;;;;3.28;0.98;;;;;;;31.92;36.52;100268.81;8347380;28;20136;-55
2022/08/13 15:49:45;;;;;;;1.70;0.88;;;;;;;32.01;36.80;100262.34;8337275;28;20065;-51
2022/08/13 15:53:45;;;;;;;2.30;1.13;;;;;;;32.22;36.67;100257.47;8375507;28;20444;-55
2022/08/13 15:57:47;;;;;;;3.17;0.98;;;;;;;32.04;37.04;100252.53;8357558;28;20103;-53
2022/08/13 16:01:48;;;;;;;3.03;1.15;;;;;;;32.11;35.87;100245.50;8373679;28;20081;-54
2022/08/13 16:05:49;;;;;;;2.90;0.90;;;;;;;32.26;35.99;100243.75;8383081;28;20044;-53
2022/08/13 16:09:49;;;;;;;2.78;1.05;;;;;;;32.27;35.54;100243.47;8365937;28;20041;-53
2022/08/13 16:13:50;;;;;;;2.15;0.90;;;;;;;32.31;35.49;100232.50;8355459;28;20033;-55
2022/08/13 16:17:50;;;;;;;2.17;1.50;;;;;;;32.22;35.74;100229.50;8371467;28;20552;-51
2022/08/13 16:21:51;;;;;;;2.15;0.90;;;;;;;32.16;35.82;100219.47;8372346;28;20059;-53
2022/08/13 16:25:53;;;;;;;1.23;1.00;;;;;;;32.09;36.12;100225.41;8354412;28;20504;-52
2022/08/13 16:29:56;;;;;;;2.78;0.93;;;;;;;32.12;35.87;100215.56;8365716;28;20704;-51
2022/08/13 16:33:58;;;;;;;1.65;0.90;;;;;;;32.14;35.44;100207.75;8363567;28;20045;-51
2022/08/13 16:38:04;;;;;;;1.90;1.00;;;;;;;32.13;36.13;100192.06;8359366;28;20045;-54
2022/08/13 16:42:10;;;;;;;1.30;0.88;;;;;;;31.94;36.21;100188.25;8352319;28;20490;-54
2022/08/13 16:46:13;;;;;;;5.97;0.95;;;;;;;31.82;35.87;100185.81;8346776;28;20456;-54
2022/08/13 16:50:14;;;;;;;1.90;1.20;;;;;;;31.79;36.27;100191.09;8354320;28;20044;-54
2022/08/13 16:54:16;;;;;;;1.20;0.90;;;;;;;31.74;36.01;100189.16;8373187;28;20283;-53
2022/08/13 16:58:21;;;;;;;1.45;1.00;;;;;;;31.80;36.23;100189.97;8357763;28;20063;-52
2022/08/13 17:09:10;;;;;;;3.30;1.13;;;;;;;31.92;36.15;100190.50;8349329;28;20037;-51
2022/08/13 17:11:04;;;;;;;2.85;1.17;;;;;;;32.01;35.76;100180.38;8351330;28;20084;-54
2022/08/13 17:15:05;;;;;;;2.90;1.50;;;;;;;32.05;35.76;100170.31;8350371;28;20072;-51
2022/08/13 17:19:08;;;;;;;3.05;1.00;;;;;;;32.01;35.58;100170.03;8355480;28;20070;-55
2022/08/13 17:23:08;;;;;;;3.57;1.10;;;;;;;31.89;35.76;100171.50;8352657;28;20087;-54
2022/08/13 17:27:09;;;;;;;1.00;0.95;;;;;;;31.73;36.03;100169.88;8354196;28;20172;-52
2022/08/13 17:31:09;;;;;;;1.75;0.90;;;;;;;31.66;36.23;100169.38;8340411;28;20048;-51
2022/08/13 17:35:09;;;;;;;1.20;0.93;;;;;;;31.64;35.90;100169.66;8347266;28;20052;-51
2022/08/13 17:39:10;;;;;;;3.37;0.90;;;;;;;31.70;35.18;100164.84;8361940;28;20063;-51
2022/08/13 17:43:11;;;;;;;2.83;0.80;;;;;;;31.63;35.13;100168.00;8355740;28;20303;-55
2022/08/13 17:47:11;;;;;;;1.20;0.73;;;;;;;31.61;34.91;100172.16;8363115;28;20060;-52
2022/08/13 17:51:12;;;;;;;1.10;0.97;;;;;;;31.52;35.39;100173.88;8367111;28;20522;-51
2022/08/13 17:55:12;;;;;;;2.15;1.17;;;;;;;31.36;35.44;100175.06;8361261;28;20267;-51
2022/08/13 17:59:13;;;;;;;2.60;1.00;;;;;;;31.26;35.86;100175.94;8365084;28;20045;-52
2022/08/13 18:03:13;;;;;;;1.60;1.10;;;;;;;31.21;35.97;100177.88;8372678;28;20095;-52
2022/08/13 18:07:14;;;;;;;2.90;1.05;;;;;;;30.99;36.32;100174.59;8346369;28;20041;-53
2022/08/13 18:11:14;;;;;;;3.47;1.02;;;;;;;30.93;36.35;100170.13;8345509;28;20068;-55
2022/08/13 18:15:15;;;;;;;1.75;0.90;;;;;;;30.91;36.40;100170.41;8355261;28;20082;-52
2022/08/13 18:19:16;;;;;;;3.28;1.00;;;;;;;30.85;36.40;100170.69;8353557;28;20048;-51
2022/08/13 18:23:17;;;;;;;1.05;0.88;;;;;;;30.71;36.67;100172.38;8322033;28;20514;-51
2022/08/13 18:27:17;;;;;;;3.47;1.00;;;;;;;30.53;36.77;100181.31;8352469;28;20397;-55
2022/08/13 18:31:17;;;;;;;6.93;1.20;;;;;;;30.40;37.20;100182.69;8350679;28;20490;-51
2022/08/13 18:35:20;;;;;;;6.73;0.90;;;;;;;30.36;37.09;100185.22;8344893;28;20040;-55
2022/08/13 18:39:20;;;;;;;4.30;1.00;;;;;;;30.26;37.07;100179.63;8353767;28;20282;-52
2022/08/13 18:43:24;;;;;;;4.30;1.13;;;;;;;29.99;37.77;100181.78;8356201;28;20146;-54
2022/08/13 18:47:24;;;;;;;5.32;1.13;;;;;;;29.97;38.13;100178.41;8366906;28;20291;-51
2022/08/13 18:51:25;;;;;;;1.00;0.90;;;;;;;29.85;37.95;100186.19;8367351;28;20104;-51
2022/08/13 18:55:25;;;;;;;2.92;1.20;;;;;;;29.08;39.68;100184.41;8359693;28;20263;-51
2022/08/13 18:59:26;;;;;;;3.88;1.48;;;;;;;28.23;43.52;100187.28;8361506;28;20041;-52